createdAt,value
2023-11-30T00:00:25.473Z,20.02
2023-11-30T00:02:52.539Z,18.88
2023-11-30T00:05:21.953Z,17.98
2023-11-30T00:07:50.098Z,21.98
2023-11-30T00:10:16.860Z,17.85
2023-11-30T00:12:43.431Z,18.25
2023-11-30T00:15:10.808Z,20.50
2023-11-30T00:17:37.726Z,20.50
2023-11-30T00:20:05.038Z,22.48
2023-11-30T00:22:31.750Z,22.23
2023-11-30T00:24:58.453Z,19.00
2023-11-30T00:27:25.312Z,18.60
2023-11-30T00:29:52.292Z,21.35
2023-11-30T00:32:18.921Z,22.45
2023-11-30T00:34:45.572Z,22.60
2023-11-30T00:37:12.188Z,22.55
2023-11-30T00:39:39.095Z,20.40
2023-11-30T00:42:05.829Z,20.30
2023-11-30T00:44:32.575Z,18.83
2023-11-30T00:46:59.228Z,20.27
2023-11-30T00:49:25.878Z,17.52
2023-11-30T00:51:52.619Z,14.80
2023-11-30T00:54:19.349Z,14.95
2023-11-30T00:56:46.136Z,18.50
2023-11-30T00:59:12.980Z,17.95
2023-11-30T01:01:39.983Z,20.75
2023-11-30T01:04:06.825Z,18.40
2023-11-30T01:06:33.520Z,15.57
2023-11-30T01:09:00.231Z,19.02
2023-11-30T01:11:26.936Z,17.70
2023-11-30T01:13:53.753Z,15.48
2023-11-30T01:16:20.598Z,17.95
2023-11-30T01:18:47.223Z,17.00
2023-11-30T01:21:14.162Z,16.67
2023-11-30T01:23:41.214Z,17.02
2023-11-30T01:26:07.823Z,18.27
2023-11-30T01:28:34.549Z,16.05
2023-11-30T01:31:01.856Z,18.27
2023-11-30T01:33:28.999Z,17.75
2023-11-30T01:35:55.782Z,17.30
2023-11-30T01:38:22.436Z,15.18
2023-11-30T01:40:49.176Z,18.77
2023-11-30T01:43:22.039Z,15.10
2023-11-30T01:45:51.584Z,18.52
2023-11-30T01:48:22.300Z,17.88
2023-11-30T01:50:49.159Z,17.33
2023-11-30T01:53:16.680Z,15.00
2023-11-30T01:55:43.473Z,18.80
2023-11-30T01:58:10.915Z,16.48
2023-11-30T02:00:37.780Z,16.10
2023-11-30T02:03:04.904Z,17.05
2023-11-30T02:05:31.838Z,19.98
2023-11-30T02:07:58.458Z,20.20
2023-11-30T02:10:25.324Z,17.17
2023-11-30T02:12:51.972Z,14.95
2023-11-30T02:15:18.979Z,18.05
2023-11-30T02:17:46.448Z,16.80
2023-11-30T02:20:13.184Z,17.05
2023-11-30T02:22:39.841Z,16.60
2023-11-30T02:25:06.747Z,18.73
2023-11-30T02:27:33.484Z,15.32
2023-11-30T02:30:00.299Z,16.50
2023-11-30T02:32:27.049Z,15.05
2023-11-30T02:34:53.887Z,15.95
2023-11-30T02:37:20.486Z,17.38
2023-11-30T02:39:47.088Z,17.58
2023-11-30T02:42:14.036Z,19.00
2023-11-30T02:44:40.682Z,17.88
2023-11-30T02:47:07.313Z,17.27
2023-11-30T02:49:34.540Z,16.85
2023-11-30T02:52:01.419Z,16.20
2023-11-30T02:54:28.073Z,17.60
2023-11-30T02:56:54.789Z,16.30
2023-11-30T02:59:21.540Z,15.50
2023-11-30T03:01:50.421Z,15.38
2023-11-30T03:04:17.272Z,17.65
2023-11-30T03:06:43.959Z,14.90
2023-11-30T03:09:11.910Z,16.67
2023-11-30T03:11:40.435Z,16.42
2023-11-30T03:14:07.183Z,16.17
2023-11-30T03:16:33.794Z,17.88
2023-11-30T03:19:13.670Z,15.95
2023-11-30T03:21:43.294Z,16.52
2023-11-30T03:24:09.968Z,17.23
2023-11-30T03:26:36.643Z,16.63
2023-11-30T03:29:03.764Z,18.33
2023-11-30T03:31:30.529Z,17.92
2023-11-30T03:33:57.216Z,16.67
2023-11-30T03:36:24.366Z,17.95
2023-11-30T03:38:55.438Z,16.88
2023-11-30T03:41:25.064Z,17.27
2023-11-30T03:43:53.030Z,18.17
2023-11-30T03:46:22.931Z,16.23
2023-11-30T03:48:49.673Z,17.77
2023-11-30T03:51:16.423Z,17.13
2023-11-30T03:53:43.107Z,16.05
2023-11-30T03:56:10.042Z,17.02
2023-11-30T03:58:36.826Z,15.93
2023-11-30T04:01:03.494Z,14.57
2023-11-30T04:03:30.340Z,18.02
2023-11-30T04:05:57.039Z,18.65
2023-11-30T04:08:23.686Z,16.40
2023-11-30T04:10:50.402Z,16.33
2023-11-30T04:13:17.269Z,16.70
2023-11-30T04:15:44.226Z,17.15
2023-11-30T04:18:11.013Z,17.23
2023-11-30T04:20:37.943Z,16.10
2023-11-30T04:23:04.797Z,15.60
2023-11-30T04:25:31.442Z,19.98
2023-11-30T04:27:58.223Z,16.33
2023-11-30T04:30:24.953Z,15.40
2023-11-30T04:32:51.647Z,16.45
2023-11-30T04:35:18.474Z,16.25
2023-11-30T04:37:45.119Z,17.70
2023-11-30T04:40:13.793Z,17.42
2023-11-30T04:42:40.460Z,16.95
2023-11-30T04:45:07.543Z,17.42
2023-11-30T04:47:34.294Z,18.35
2023-11-30T04:50:01.222Z,17.45
2023-11-30T04:52:27.833Z,17.02
2023-11-30T04:54:54.458Z,17.08
2023-11-30T04:57:21.171Z,17.90
2023-11-30T04:59:47.777Z,18.77
2023-11-30T05:02:14.821Z,22.42
2023-11-30T05:04:41.625Z,25.23
2023-11-30T05:07:08.455Z,21.17
2023-11-30T05:09:35.112Z,25.02
2023-11-30T05:12:01.879Z,21.70
2023-11-30T05:14:28.684Z,20.23
2023-11-30T05:16:55.383Z,22.60
2023-11-30T05:19:22.008Z,17.85
2023-11-30T05:21:48.634Z,18.63
2023-11-30T05:24:15.371Z,20.95
2023-11-30T05:26:42.043Z,26.85
2023-11-30T05:29:08.719Z,27.63
2023-11-30T05:31:35.532Z,25.55
2023-11-30T05:34:03.631Z,21.05
2023-11-30T05:36:30.649Z,20.23
2023-11-30T05:38:57.488Z,18.65
2023-11-30T05:41:24.253Z,23.67
2023-11-30T05:43:52.045Z,18.42
2023-11-30T05:46:20.268Z,17.02
2023-11-30T05:48:47.240Z,15.27
2023-11-30T05:51:14.924Z,16.65
2023-11-30T05:53:41.728Z,15.23
2023-11-30T05:56:08.864Z,15.98
2023-11-30T05:58:35.444Z,15.02
2023-11-30T06:01:02.126Z,14.93
2023-11-30T06:03:28.873Z,15.27
2023-11-30T06:05:56.210Z,16.83
2023-11-30T06:08:25.922Z,14.88
2023-11-30T06:10:52.736Z,16.02
2023-11-30T06:13:19.642Z,16.33
2023-11-30T06:15:46.978Z,18.10
2023-11-30T06:18:13.772Z,17.60
2023-11-30T06:20:40.419Z,23.98
2023-11-30T06:23:07.089Z,19.10
2023-11-30T06:25:33.843Z,19.13
2023-11-30T06:28:00.682Z,20.67
2023-11-30T06:30:27.325Z,20.50
2023-11-30T06:32:54.098Z,20.35
2023-11-30T06:35:21.996Z,20.60
2023-11-30T06:37:48.744Z,17.25
2023-11-30T06:40:15.398Z,17.75
2023-11-30T06:42:42.038Z,31.77
2023-11-30T06:45:09.220Z,26.27
2023-11-30T06:47:36.076Z,27.17
2023-11-30T06:50:02.908Z,27.30
2023-11-30T06:52:29.604Z,19.92
2023-11-30T06:54:56.251Z,19.40
2023-11-30T06:57:23.041Z,15.88
2023-11-30T06:59:49.658Z,15.95
2023-11-30T07:02:16.258Z,16.33
2023-11-30T07:04:43.016Z,16.38
2023-11-30T07:07:12.931Z,16.67
2023-11-30T07:09:43.644Z,18.17
2023-11-30T07:12:14.278Z,16.75
2023-11-30T07:14:50.755Z,17.85
2023-11-30T07:17:18.570Z,15.73
2023-11-30T07:19:45.398Z,15.98
2023-11-30T07:22:12.773Z,18.92
2023-11-30T07:24:39.389Z,16.65
2023-11-30T07:27:06.419Z,17.50
2023-11-30T07:29:34.715Z,16.05
2023-11-30T07:32:01.458Z,14.65
2023-11-30T07:34:28.204Z,19.77
2023-11-30T07:36:55.139Z,32.88
2023-11-30T07:39:22.290Z,18.63
2023-11-30T07:41:50.354Z,16.38
2023-11-30T07:44:17.903Z,16.38
2023-11-30T07:46:45.552Z,15.68
2023-11-30T07:49:12.531Z,16.10
2023-11-30T07:51:39.215Z,16.13
2023-11-30T07:54:07.242Z,13.77
2023-11-30T07:56:36.771Z,13.70
2023-11-30T07:59:03.534Z,19.48
2023-11-30T08:01:30.181Z,24.15
2023-11-30T08:03:59.467Z,24.63
2023-11-30T08:06:26.218Z,15.40
2023-11-30T08:08:53.001Z,14.43
2023-11-30T08:11:21.270Z,11.88
2023-11-30T08:13:47.908Z,13.02
2023-11-30T08:16:15.608Z,12.00
2023-11-30T08:18:42.343Z,11.63
2023-11-30T08:21:09.031Z,12.15
2023-11-30T08:23:37.865Z,11.68
2023-11-30T08:26:05.318Z,11.48
2023-11-30T08:28:31.986Z,11.63
2023-11-30T08:31:01.935Z,11.35
2023-11-30T08:33:29.779Z,11.50
2023-11-30T08:35:56.511Z,10.90
2023-11-30T08:38:24.200Z,10.55
2023-11-30T08:40:50.783Z,11.20
2023-11-30T08:43:17.464Z,14.10
2023-11-30T08:45:45.230Z,14.50
2023-11-30T08:48:12.108Z,11.05
2023-11-30T08:50:38.826Z,12.95
2023-11-30T08:53:05.439Z,14.25
2023-11-30T08:55:33.393Z,12.38
2023-11-30T08:58:00.071Z,13.85
2023-11-30T09:00:27.067Z,13.82
2023-11-30T09:02:53.725Z,11.93
2023-11-30T09:05:21.186Z,11.80
2023-11-30T09:07:47.988Z,11.27
2023-11-30T09:10:14.640Z,11.05
2023-11-30T09:12:41.370Z,11.98
2023-11-30T09:15:10.381Z,14.00
2023-11-30T09:17:37.345Z,10.82
2023-11-30T09:20:06.397Z,11.35
2023-11-30T09:22:36.874Z,12.07
2023-11-30T09:25:04.664Z,12.20
2023-11-30T09:27:31.285Z,11.68
2023-11-30T09:29:58.047Z,11.68
2023-11-30T09:32:24.856Z,11.60
2023-11-30T09:34:51.595Z,11.38
2023-11-30T09:37:18.837Z,13.73
2023-11-30T09:39:45.824Z,13.70
2023-11-30T09:42:17.538Z,11.27
2023-11-30T09:44:44.812Z,11.65
2023-11-30T09:47:12.316Z,14.07
2023-11-30T09:49:39.388Z,14.35
2023-11-30T09:52:06.752Z,11.68
2023-11-30T09:54:33.795Z,13.73
2023-11-30T09:57:00.396Z,12.68
2023-11-30T09:59:30.808Z,12.60
2023-11-30T10:02:03.738Z,13.45
2023-11-30T10:04:32.329Z,12.52
2023-11-30T10:06:59.261Z,12.48
2023-11-30T10:09:26.003Z,12.85
2023-11-30T10:11:53.726Z,14.40
2023-11-30T10:14:20.517Z,14.32
2023-11-30T10:16:47.283Z,13.80
2023-11-30T10:19:14.646Z,12.32
2023-11-30T10:21:43.168Z,13.20
2023-11-30T10:24:10.501Z,12.73
2023-11-30T10:26:39.367Z,11.95
2023-11-30T10:29:08.113Z,13.75
2023-11-30T10:31:38.272Z,12.55
2023-11-30T10:34:13.816Z,12.00
2023-11-30T10:36:44.039Z,13.75
2023-11-30T10:39:19.902Z,14.05
2023-11-30T10:41:54.449Z,15.23
2023-11-30T10:44:28.519Z,12.93
2023-11-30T10:46:57.402Z,14.93
2023-11-30T10:49:25.764Z,16.23
2023-11-30T10:51:56.618Z,13.60
2023-11-30T10:54:38.687Z,14.15
2023-11-30T10:57:06.263Z,15.55
2023-11-30T10:59:34.167Z,15.20
2023-11-30T11:02:01.286Z,13.13
2023-11-30T11:04:29.051Z,12.80
2023-11-30T11:07:08.754Z,14.50
2023-11-30T11:09:51.507Z,13.45
2023-11-30T11:12:26.827Z,13.57
2023-11-30T11:15:14.865Z,13.88
2023-11-30T11:17:53.745Z,12.88
2023-11-30T11:20:27.152Z,14.18
2023-11-30T11:23:10.382Z,12.20
2023-11-30T11:25:40.442Z,16.73
2023-11-30T11:28:07.606Z,16.00
2023-11-30T11:30:41.192Z,14.75
2023-11-30T11:33:07.885Z,15.88
2023-11-30T11:35:34.611Z,15.85
2023-11-30T11:38:01.244Z,14.77
2023-11-30T11:40:28.307Z,16.80
2023-11-30T11:42:55.790Z,15.63
2023-11-30T11:45:22.557Z,14.27
2023-11-30T11:47:49.362Z,15.65
2023-11-30T11:50:16.596Z,14.65
2023-11-30T11:52:43.293Z,15.07
2023-11-30T11:55:12.140Z,15.30
2023-11-30T11:57:40.372Z,15.38
2023-11-30T12:00:19.394Z,14.18
2023-11-30T12:02:46.485Z,14.48
2023-11-30T12:05:15.305Z,15.38
2023-11-30T12:07:49.795Z,15.63
2023-11-30T12:10:43.379Z,14.20
2023-11-30T12:13:13.601Z,15.02
2023-11-30T12:15:41.076Z,18.02
2023-11-30T12:18:08.640Z,14.98
2023-11-30T12:20:36.467Z,14.77
2023-11-30T12:23:03.427Z,13.68
2023-11-30T12:25:30.121Z,16.13
2023-11-30T12:27:57.187Z,15.23
2023-11-30T12:30:25.129Z,14.70
2023-11-30T12:32:52.031Z,15.38
2023-11-30T12:35:18.782Z,15.90
2023-11-30T12:37:45.414Z,16.08
2023-11-30T12:40:14.823Z,15.38
2023-11-30T12:42:45.606Z,15.98
2023-11-30T12:45:13.336Z,15.70
2023-11-30T12:47:42.101Z,17.33
2023-11-30T12:50:10.561Z,17.60
2023-11-30T12:52:37.604Z,18.80
2023-11-30T12:55:05.411Z,21.30
2023-11-30T12:57:35.782Z,25.55
2023-11-30T13:00:04.537Z,19.58
2023-11-30T13:02:32.118Z,15.13
2023-11-30T13:04:58.816Z,15.60
2023-11-30T13:07:25.606Z,15.55
2023-11-30T13:09:52.350Z,16.25
2023-11-30T13:12:19.033Z,18.20
2023-11-30T13:14:45.638Z,17.60
2023-11-30T13:17:12.264Z,18.55
2023-11-30T13:19:38.969Z,19.20
2023-11-30T13:22:05.629Z,18.35
2023-11-30T13:24:32.489Z,18.50
2023-11-30T13:26:59.139Z,18.40
2023-11-30T13:29:25.742Z,21.92
2023-11-30T13:31:52.347Z,29.60
2023-11-30T13:34:19.153Z,26.77
2023-11-30T13:36:45.911Z,25.98
2023-11-30T13:39:12.679Z,20.30
2023-11-30T13:41:39.252Z,19.23
2023-11-30T13:44:06.462Z,20.42
2023-11-30T13:46:33.257Z,19.67
2023-11-30T13:49:00.465Z,18.88
2023-11-30T13:51:27.188Z,18.55
2023-11-30T13:53:54.030Z,17.65
2023-11-30T13:56:22.847Z,19.27
2023-11-30T13:58:50.769Z,18.48
2023-11-30T14:01:17.891Z,18.38
2023-11-30T14:03:44.798Z,17.45
2023-11-30T14:06:13.375Z,20.00
2023-11-30T14:08:41.318Z,20.13
2023-11-30T14:11:13.209Z,19.40
2023-11-30T14:13:40.260Z,18.42
2023-11-30T14:16:07.817Z,18.67
2023-11-30T14:18:34.741Z,19.90
2023-11-30T14:21:01.500Z,19.25
2023-11-30T14:23:28.489Z,21.40
2023-11-30T14:25:55.220Z,18.60
2023-11-30T14:28:22.756Z,28.73
2023-11-30T14:30:49.561Z,22.98
2023-11-30T14:33:16.414Z,21.02
2023-11-30T14:35:42.987Z,22.25
2023-11-30T14:38:09.693Z,18.48
2023-11-30T14:40:37.181Z,18.25
2023-11-30T14:43:03.792Z,19.48
2023-11-30T14:45:30.720Z,21.60
2023-11-30T14:47:59.655Z,18.88
2023-11-30T14:50:27.431Z,20.23
2023-11-30T14:52:55.233Z,33.00
2023-11-30T14:55:22.188Z,27.92
2023-11-30T14:57:51.715Z,25.80
2023-11-30T15:00:22.337Z,24.40
2023-11-30T15:02:49.806Z,22.95
2023-11-30T15:05:16.803Z,21.85
2023-11-30T15:07:43.843Z,24.05
2023-11-30T15:10:12.658Z,22.98
2023-11-30T15:12:40.252Z,22.23
2023-11-30T15:15:14.370Z,21.73
2023-11-30T15:17:43.495Z,22.15
2023-11-30T15:20:11.954Z,20.95
2023-11-30T15:22:39.288Z,20.00
2023-11-30T15:25:08.735Z,21.17
2023-11-30T15:27:37.553Z,21.33
2023-11-30T15:30:05.544Z,20.65
2023-11-30T15:32:32.187Z,23.75
2023-11-30T15:34:58.931Z,23.08
2023-11-30T15:37:25.555Z,31.17
2023-11-30T15:39:54.350Z,26.40
2023-11-30T15:42:21.481Z,23.60
2023-11-30T15:44:48.495Z,28.17
2023-11-30T15:47:15.129Z,25.48
2023-11-30T15:49:41.784Z,26.77
2023-11-30T15:52:08.439Z,22.98
2023-11-30T15:54:39.255Z,24.35
2023-11-30T15:57:05.921Z,24.70
2023-11-30T15:59:32.527Z,26.60
2023-11-30T16:01:59.159Z,26.58
2023-11-30T16:04:26.642Z,23.75
2023-11-30T16:06:53.335Z,24.20
2023-11-30T16:09:19.981Z,26.88
2023-11-30T16:11:49.393Z,35.88
2023-11-30T16:14:17.012Z,28.20
2023-11-30T16:16:45.680Z,24.70
2023-11-30T16:19:12.543Z,23.90
2023-11-30T16:21:39.609Z,22.75
2023-11-30T16:24:06.559Z,23.63
2023-11-30T16:26:34.902Z,24.35
2023-11-30T16:29:01.635Z,26.63
2023-11-30T16:31:28.344Z,25.35
2023-11-30T16:33:55.620Z,26.02
2023-11-30T16:36:24.409Z,24.52
2023-11-30T16:38:52.548Z,24.77
2023-11-30T16:41:19.143Z,26.92
2023-11-30T16:43:46.372Z,28.85
2023-11-30T16:46:14.011Z,25.73
2023-11-30T16:48:45.259Z,25.40
2023-11-30T16:51:12.853Z,24.83
2023-11-30T16:53:39.808Z,29.38
2023-11-30T16:56:06.825Z,27.17
2023-11-30T16:58:33.597Z,28.13
2023-11-30T17:01:00.280Z,27.60
2023-11-30T17:03:27.143Z,26.73
2023-11-30T17:05:54.144Z,30.30
2023-11-30T17:08:20.850Z,28.95
2023-11-30T17:10:47.922Z,33.30
2023-11-30T17:13:14.633Z,29.40
2023-11-30T17:15:41.333Z,27.90
2023-11-30T17:18:08.021Z,29.05
2023-11-30T17:20:34.767Z,26.65
2023-11-30T17:23:01.561Z,30.98
2023-11-30T17:25:28.305Z,28.75
2023-11-30T17:27:55.031Z,26.45
2023-11-30T17:30:21.762Z,28.92
2023-11-30T17:32:48.568Z,29.50
2023-11-30T17:35:15.562Z,32.85
2023-11-30T17:37:42.323Z,35.10
2023-11-30T17:40:11.892Z,34.38
2023-11-30T17:42:39.037Z,36.42
2023-11-30T17:45:06.986Z,33.60
2023-11-30T17:47:34.594Z,29.13
2023-11-30T17:50:04.538Z,27.92
2023-11-30T17:52:31.929Z,30.20
2023-11-30T17:54:58.785Z,32.17
2023-11-30T17:57:25.539Z,31.27
2023-11-30T17:59:52.181Z,32.67
2023-11-30T18:02:18.861Z,26.40
2023-11-30T18:04:45.639Z,31.08
2023-11-30T18:07:12.299Z,30.50
2023-11-30T18:09:39.016Z,30.58
2023-11-30T18:12:06.999Z,28.38
2023-11-30T18:14:33.878Z,33.97
2023-11-30T18:17:01.495Z,32.97
2023-11-30T18:19:28.628Z,34.38
2023-11-30T18:21:55.275Z,35.15
2023-11-30T18:24:30.993Z,29.85
2023-11-30T18:26:58.979Z,25.98
2023-11-30T18:29:25.896Z,27.90
2023-11-30T18:31:52.788Z,29.10
2023-11-30T18:34:20.240Z,29.08
2023-11-30T18:36:47.302Z,28.70
2023-11-30T18:39:15.993Z,28.48
2023-11-30T18:41:43.558Z,27.13
2023-11-30T18:44:12.423Z,24.63
2023-11-30T18:46:39.770Z,27.58
2023-11-30T18:49:06.734Z,29.67
2023-11-30T18:51:35.315Z,31.90
2023-11-30T18:54:02.388Z,33.78
2023-11-30T18:56:30.014Z,36.78
2023-11-30T18:58:57.516Z,33.17
2023-11-30T19:01:25.144Z,35.88
2023-11-30T19:03:52.347Z,34.42
2023-11-30T19:06:21.033Z,32.58
2023-11-30T19:08:48.760Z,31.30
2023-11-30T19:11:17.370Z,32.42
2023-11-30T19:13:44.728Z,38.63
2023-11-30T19:16:24.415Z,35.72
2023-11-30T19:18:51.681Z,31.95
2023-11-30T19:21:19.262Z,33.20
2023-11-30T19:23:46.733Z,31.40
2023-11-30T19:26:13.987Z,33.95
2023-11-30T19:28:40.743Z,32.13
2023-11-30T19:31:07.701Z,31.98
2023-11-30T19:33:34.525Z,31.52
2023-11-30T19:36:01.791Z,31.23
2023-11-30T19:38:28.977Z,31.70
2023-11-30T19:40:57.203Z,29.25
2023-11-30T19:43:25.403Z,33.25
2023-11-30T19:45:53.677Z,35.25
2023-11-30T19:48:20.683Z,35.88
2023-11-30T19:50:47.399Z,34.17
2023-11-30T19:53:14.124Z,38.47
2023-11-30T19:55:40.828Z,36.50
2023-11-30T19:58:07.900Z,39.72
2023-11-30T20:00:34.777Z,33.70
2023-11-30T20:03:01.516Z,34.80
2023-11-30T20:05:28.307Z,34.00
2023-11-30T20:07:54.980Z,37.10
2023-11-30T20:10:21.537Z,36.40
2023-11-30T20:12:50.208Z,37.40
2023-11-30T20:15:17.420Z,32.47
2023-11-30T20:17:44.079Z,33.92
2023-11-30T20:20:11.022Z,33.65
2023-11-30T20:22:37.641Z,35.50
2023-11-30T20:25:05.508Z,34.13
2023-11-30T20:27:32.215Z,37.45
2023-11-30T20:29:59.019Z,36.25
2023-11-30T20:32:26.036Z,34.85
2023-11-30T20:34:55.965Z,36.22
2023-11-30T20:37:22.577Z,36.13
2023-11-30T20:39:49.308Z,33.08
2023-11-30T20:42:15.906Z,35.25
2023-11-30T20:44:42.496Z,34.35
2023-11-30T20:47:09.270Z,34.85
2023-11-30T20:49:38.987Z,38.35
2023-11-30T20:52:05.935Z,41.80
2023-11-30T20:54:35.461Z,48.25
2023-11-30T20:57:03.554Z,50.30
2023-11-30T20:59:30.225Z,43.75
2023-11-30T21:01:56.974Z,43.15
2023-11-30T21:04:23.834Z,49.80
2023-11-30T21:06:50.520Z,54.97
2023-11-30T21:09:17.239Z,53.50
2023-11-30T21:11:43.969Z,46.83
2023-11-30T21:14:12.085Z,39.42
2023-11-30T21:16:38.681Z,41.00
2023-11-30T21:19:05.392Z,39.70
2023-11-30T21:21:32.278Z,40.45
2023-11-30T21:23:58.909Z,45.13
2023-11-30T21:26:25.804Z,37.92
2023-11-30T21:28:52.416Z,35.95
2023-11-30T21:31:19.091Z,40.72
2023-11-30T21:33:45.824Z,38.80
2023-11-30T21:36:15.330Z,38.08
2023-11-30T21:38:42.161Z,39.72
2023-11-30T21:41:09.276Z,37.75
2023-11-30T21:43:35.901Z,38.72
2023-11-30T21:46:02.659Z,39.15
2023-11-30T21:48:29.448Z,38.47
2023-11-30T21:50:56.112Z,39.78
2023-11-30T21:53:22.722Z,38.13
2023-11-30T21:55:49.591Z,39.55
2023-11-30T21:58:16.535Z,37.83
2023-11-30T22:00:44.972Z,36.90
2023-11-30T22:03:17.673Z,37.38
2023-11-30T22:05:46.204Z,32.63
2023-11-30T22:08:12.832Z,37.75
2023-11-30T22:10:39.629Z,36.80
2023-11-30T22:13:06.318Z,34.33
2023-11-30T22:15:32.976Z,44.58
2023-11-30T22:18:00.158Z,40.08
2023-11-30T22:20:26.880Z,38.60
2023-11-30T22:22:56.322Z,37.28
2023-11-30T22:25:24.346Z,39.70
2023-11-30T22:27:51.145Z,37.60
2023-11-30T22:30:17.809Z,35.45
2023-11-30T22:32:44.675Z,36.38
2023-11-30T22:35:11.414Z,37.90
2023-11-30T22:37:38.013Z,39.38
2023-11-30T22:40:05.232Z,36.42
2023-11-30T22:42:33.485Z,35.50
2023-11-30T22:45:02.377Z,36.42
2023-11-30T22:47:29.274Z,36.08
2023-11-30T22:49:56.246Z,38.92
2023-11-30T22:52:26.652Z,40.25
2023-11-30T22:54:53.880Z,37.58
2023-11-30T22:57:21.061Z,39.92
2023-11-30T22:59:47.780Z,35.55
2023-11-30T23:02:15.013Z,37.20
2023-11-30T23:04:42.031Z,36.58
2023-11-30T23:07:08.752Z,36.45
2023-11-30T23:09:35.489Z,56.42
2023-11-30T23:12:02.182Z,65.28
2023-11-30T23:14:29.103Z,61.92
2023-11-30T23:16:55.805Z,49.80
2023-11-30T23:19:22.484Z,43.40
2023-11-30T23:21:49.289Z,41.28
2023-11-30T23:24:25.851Z,39.58
2023-11-30T23:26:55.841Z,35.50
2023-11-30T23:29:23.267Z,37.15
2023-11-30T23:31:49.992Z,39.88
2023-11-30T23:34:16.656Z,38.45
2023-11-30T23:36:43.337Z,39.65
2023-11-30T23:39:10.032Z,45.40
2023-11-30T23:41:36.681Z,42.05
2023-11-30T23:44:03.438Z,41.47
2023-11-30T23:46:31.595Z,43.08
2023-11-30T23:48:58.715Z,40.35
2023-11-30T23:51:25.469Z,40.80
2023-11-30T23:53:52.223Z,37.90
2023-11-30T23:56:18.863Z,38.00
2023-11-30T23:58:45.565Z,49.00
